createdAt,value
2022-11-05T00:00:36.529Z,38.83
2022-11-05T00:01:57.430Z,38.67
2022-11-05T00:03:18.646Z,34.05
2022-11-05T00:04:39.980Z,38.38
2022-11-05T00:06:02.216Z,38.42
2022-11-05T00:07:39.997Z,41.13
2022-11-05T00:09:01.439Z,34.45
2022-11-05T00:10:14.601Z,37.20
2022-11-05T00:11:18.426Z,34.35
2022-11-05T00:12:39.410Z,35.50
2022-11-05T00:14:01.094Z,33.70
2022-11-05T00:15:22.130Z,33.03
2022-11-05T00:16:43.031Z,31.33
2022-11-05T00:17:45.505Z,34.95
2022-11-05T00:19:06.678Z,33.25
2022-11-05T00:20:13.762Z,34.28
2022-11-05T00:21:34.919Z,34.28
2022-11-05T00:22:56.198Z,32.78
2022-11-05T00:24:20.468Z,33.78
2022-11-05T00:25:26.647Z,32.88
2022-11-05T00:26:29.079Z,36.40
2022-11-05T00:27:33.476Z,31.77
2022-11-05T00:28:36.498Z,32.30
2022-11-05T00:29:41.188Z,29.98
2022-11-05T00:30:43.717Z,29.50
2022-11-05T00:31:46.610Z,31.13
2022-11-05T00:32:50.602Z,33.85
2022-11-05T00:33:53.136Z,33.70
2022-11-05T00:34:55.713Z,30.98
2022-11-05T00:35:58.292Z,32.47
2022-11-05T00:37:00.841Z,30.42
2022-11-05T00:38:03.331Z,38.95
2022-11-05T00:39:08.635Z,36.25
2022-11-05T00:40:12.119Z,32.60
2022-11-05T00:41:14.505Z,32.95
2022-11-05T00:42:35.678Z,34.58
2022-11-05T00:43:56.677Z,32.92
2022-11-05T00:45:02.236Z,34.90
2022-11-05T00:46:15.128Z,30.83
2022-11-05T00:47:36.517Z,32.80
2022-11-05T00:48:57.527Z,34.42
2022-11-05T00:50:00.375Z,32.70
2022-11-05T00:51:02.651Z,31.42
2022-11-05T00:52:23.448Z,32.47
2022-11-05T00:53:25.796Z,34.92
2022-11-05T00:54:28.052Z,31.30
2022-11-05T00:55:38.405Z,35.60
2022-11-05T00:56:40.858Z,36.75
2022-11-05T00:57:43.322Z,34.03
2022-11-05T00:58:45.871Z,37.78
2022-11-05T00:59:48.283Z,31.60
2022-11-05T01:00:53.014Z,30.80
2022-11-05T01:01:55.642Z,32.58
2022-11-05T01:03:03.827Z,39.00
2022-11-05T01:04:06.630Z,32.60
2022-11-05T01:05:09.639Z,35.95
2022-11-05T01:06:15.466Z,32.13
2022-11-05T01:07:18.811Z,32.30
2022-11-05T01:08:27.117Z,34.60
2022-11-05T01:09:29.754Z,33.90
2022-11-05T01:10:32.073Z,37.30
2022-11-05T01:11:35.521Z,34.78
2022-11-05T01:12:38.236Z,34.15
2022-11-05T01:13:40.823Z,32.28
2022-11-05T01:14:43.263Z,34.80
2022-11-05T01:15:46.328Z,33.97
2022-11-05T01:16:49.017Z,32.35
2022-11-05T01:17:52.535Z,36.88
2022-11-05T01:18:55.144Z,34.30
2022-11-05T01:19:57.541Z,36.47
2022-11-05T01:20:59.789Z,32.70
2022-11-05T01:22:02.466Z,35.58
2022-11-05T01:23:10.290Z,33.10
2022-11-05T01:24:15.657Z,34.88
2022-11-05T01:25:18.245Z,32.17
2022-11-05T01:26:20.648Z,36.60
2022-11-05T01:27:23.189Z,38.88
2022-11-05T01:29:29.676Z,34.70
2022-11-05T01:30:32.191Z,35.78
2022-11-05T01:31:34.629Z,33.88
2022-11-05T01:32:37.768Z,35.80
2022-11-05T01:33:40.446Z,37.88
2022-11-05T01:34:42.823Z,33.10
2022-11-05T01:35:53.645Z,34.03
2022-11-05T01:36:56.046Z,35.08
2022-11-05T01:37:58.477Z,33.40
2022-11-05T01:39:02.170Z,34.28
2022-11-05T01:40:05.367Z,35.92
2022-11-05T01:41:08.647Z,37.45
2022-11-05T01:42:32.496Z,33.60
2022-11-05T01:43:46.200Z,39.00
2022-11-05T01:45:15.173Z,34.63
2022-11-05T01:46:26.390Z,36.38
2022-11-05T01:47:53.611Z,36.25
2022-11-05T01:49:03.117Z,33.05
2022-11-05T01:50:13.732Z,34.58
2022-11-05T01:51:22.596Z,39.03
2022-11-05T01:52:27.156Z,37.45
2022-11-05T01:53:49.200Z,34.20
2022-11-05T01:54:51.738Z,37.72
2022-11-05T01:56:01.154Z,32.08
2022-11-05T01:57:09.323Z,35.00
2022-11-05T01:58:17.624Z,31.17
2022-11-05T01:59:29.343Z,37.25
2022-11-05T02:00:33.762Z,31.33
2022-11-05T02:01:36.142Z,33.63
2022-11-05T02:02:39.169Z,33.85
2022-11-05T02:03:47.948Z,31.73
2022-11-05T02:04:54.754Z,36.25
2022-11-05T02:06:00.340Z,40.35
2022-11-05T02:07:05.912Z,34.50
2022-11-05T02:08:15.867Z,33.97
2022-11-05T02:09:31.526Z,30.95
2022-11-05T02:10:34.011Z,34.40
2022-11-05T02:11:36.544Z,30.17
2022-11-05T02:12:42.738Z,33.05
2022-11-05T02:13:45.304Z,32.03
2022-11-05T02:14:47.670Z,34.17
2022-11-05T02:16:03.434Z,32.92
2022-11-05T02:17:12.661Z,37.83
2022-11-05T02:18:35.654Z,32.58
2022-11-05T02:20:04.340Z,36.42
2022-11-05T02:21:06.847Z,34.03
2022-11-05T02:22:28.009Z,33.88
2022-11-05T02:24:02.651Z,31.45
2022-11-05T02:25:14.323Z,34.20
2022-11-05T02:26:53.889Z,32.03
2022-11-05T02:28:10.245Z,32.10
2022-11-05T02:29:34.153Z,35.13
2022-11-05T02:30:47.171Z,33.22
2022-11-05T02:32:13.388Z,32.78
2022-11-05T02:33:42.123Z,32.90
2022-11-05T02:35:15.389Z,35.88
2022-11-05T02:36:26.943Z,32.38
2022-11-05T02:37:44.856Z,33.58
2022-11-05T02:39:16.622Z,35.20
2022-11-05T02:40:37.149Z,32.22
2022-11-05T02:41:54.487Z,34.60
2022-11-05T02:43:05.608Z,38.47
2022-11-05T02:44:14.398Z,33.25
2022-11-05T02:45:16.694Z,35.95
2022-11-05T02:46:39.222Z,32.75
2022-11-05T02:47:51.520Z,35.97
2022-11-05T02:49:18.148Z,36.22
2022-11-05T02:50:35.493Z,33.45
2022-11-05T02:52:11.702Z,35.47
2022-11-05T02:53:34.095Z,34.45
2022-11-05T02:54:43.322Z,30.23
2022-11-05T02:55:53.331Z,33.90
2022-11-05T02:56:57.082Z,34.70
2022-11-05T02:58:02.160Z,33.97
2022-11-05T02:59:04.549Z,33.88
2022-11-05T03:00:37.251Z,34.60
2022-11-05T03:01:42.883Z,36.00
2022-11-05T03:02:45.546Z,34.58
2022-11-05T03:03:53.880Z,35.90
2022-11-05T03:04:56.481Z,36.95
2022-11-05T03:06:37.287Z,36.08
2022-11-05T03:07:56.539Z,36.38
2022-11-05T03:09:36.486Z,34.75
2022-11-05T03:10:51.045Z,35.45
2022-11-05T03:12:11.146Z,34.58
2022-11-05T03:13:20.966Z,37.60
2022-11-05T03:14:31.714Z,35.58
2022-11-05T03:16:22.225Z,34.15
2022-11-05T03:17:30.431Z,31.13
2022-11-05T03:19:10.878Z,30.80
2022-11-05T03:20:18.461Z,34.28
2022-11-05T03:21:31.576Z,34.92
2022-11-05T03:22:46.825Z,32.20
2022-11-05T03:23:59.690Z,34.40
2022-11-05T03:25:08.740Z,37.35
2022-11-05T03:26:18.821Z,36.03
2022-11-05T03:27:27.471Z,40.88
2022-11-05T03:28:36.148Z,34.72
2022-11-05T03:29:49.920Z,32.47
2022-11-05T03:30:56.349Z,32.80
2022-11-05T03:32:02.038Z,32.80
2022-11-05T03:33:12.521Z,37.85
2022-11-05T03:34:18.713Z,37.75
2022-11-05T03:35:26.566Z,37.42
2022-11-05T03:36:34.439Z,30.25
2022-11-05T03:37:40.846Z,35.53
2022-11-05T03:38:47.206Z,33.35
2022-11-05T03:39:54.533Z,41.67
2022-11-05T03:41:02.409Z,34.25
2022-11-05T03:42:08.550Z,33.65
2022-11-05T03:43:13.224Z,32.85
2022-11-05T03:44:21.454Z,35.80
2022-11-05T03:45:35.750Z,34.92
2022-11-05T03:46:45.734Z,36.33
2022-11-05T03:47:58.176Z,35.15
2022-11-05T03:49:04.642Z,35.13
2022-11-05T03:50:20.616Z,36.00
2022-11-05T03:51:23.063Z,31.67
2022-11-05T03:52:29.879Z,38.47
2022-11-05T03:53:44.829Z,34.67
2022-11-05T03:54:47.435Z,34.83
2022-11-05T03:56:21.046Z,35.08
2022-11-05T03:57:32.934Z,36.88
2022-11-05T03:58:36.679Z,33.70
2022-11-05T03:59:43.472Z,34.97
2022-11-05T04:00:46.296Z,35.33
2022-11-05T04:01:50.018Z,36.38
2022-11-05T04:02:52.713Z,37.53
2022-11-05T04:03:55.275Z,35.00
2022-11-05T04:04:57.674Z,37.67
2022-11-05T04:06:18.522Z,31.40
2022-11-05T04:07:39.401Z,37.28
2022-11-05T04:09:00.396Z,31.55
2022-11-05T04:10:21.560Z,34.30
2022-11-05T04:11:42.640Z,34.75
2022-11-05T04:13:03.758Z,34.22
2022-11-05T04:14:10.047Z,35.83
2022-11-05T04:15:12.736Z,33.35
2022-11-05T04:16:33.658Z,38.42
2022-11-05T04:17:36.050Z,38.50
2022-11-05T04:18:46.143Z,38.22
2022-11-05T04:20:07.348Z,33.90
2022-11-05T04:21:29.581Z,34.85
2022-11-05T04:22:52.140Z,35.28
2022-11-05T04:24:10.495Z,41.30
2022-11-05T04:25:15.247Z,36.45
2022-11-05T04:26:17.583Z,40.33
2022-11-05T04:27:20.001Z,34.97
2022-11-05T04:28:44.568Z,40.47
2022-11-05T04:30:05.693Z,37.00
2022-11-05T04:31:11.426Z,39.08
2022-11-05T04:32:14.062Z,38.50
2022-11-05T04:33:20.888Z,39.22
2022-11-05T04:34:24.155Z,37.15
2022-11-05T04:35:34.972Z,37.50
2022-11-05T04:36:37.386Z,37.53
2022-11-05T04:37:39.797Z,38.80
2022-11-05T04:38:42.243Z,36.38
2022-11-05T04:39:44.684Z,37.88
2022-11-05T04:40:48.389Z,36.05
2022-11-05T04:41:50.758Z,34.47
2022-11-05T04:42:55.961Z,41.83
2022-11-05T04:43:58.887Z,40.47
2022-11-05T04:45:02.007Z,39.80
2022-11-05T04:46:04.429Z,40.15
2022-11-05T04:47:07.313Z,39.38
2022-11-05T04:48:10.153Z,38.33
2022-11-05T04:49:12.633Z,42.10
2022-11-05T04:50:15.380Z,47.05
2022-11-05T04:51:18.168Z,41.88
2022-11-05T04:52:20.791Z,40.50
2022-11-05T04:53:23.112Z,40.22
2022-11-05T04:54:25.496Z,41.60
2022-11-05T04:55:28.670Z,43.00
2022-11-05T04:56:31.179Z,44.17
2022-11-05T04:57:33.994Z,44.67
2022-11-05T04:58:42.322Z,41.58
2022-11-05T04:59:48.793Z,38.67
2022-11-05T05:00:51.456Z,43.38
2022-11-05T05:01:54.008Z,39.35
2022-11-05T05:02:56.428Z,43.13
2022-11-05T05:03:59.180Z,37.83
2022-11-05T05:05:01.634Z,44.97
2022-11-05T05:06:04.354Z,42.13
2022-11-05T05:07:06.814Z,42.83
2022-11-05T05:08:10.497Z,38.50
2022-11-05T05:09:12.967Z,38.80
2022-11-05T05:10:15.630Z,37.00
2022-11-05T05:11:20.744Z,39.47
2022-11-05T05:12:23.306Z,39.08
2022-11-05T05:13:25.691Z,47.08
2022-11-05T05:14:28.205Z,39.20
2022-11-05T05:15:31.211Z,41.03
2022-11-05T05:16:35.937Z,45.15
2022-11-05T05:17:38.485Z,41.72
2022-11-05T05:18:46.059Z,42.75
2022-11-05T05:20:07.555Z,41.88
2022-11-05T05:21:28.583Z,41.60
2022-11-05T05:22:31.461Z,40.40
2022-11-05T05:23:34.130Z,42.92
2022-11-05T05:24:36.717Z,45.08
2022-11-05T05:25:39.206Z,42.63
2022-11-05T05:26:47.362Z,42.58
2022-11-05T05:27:49.902Z,42.30
2022-11-05T05:28:55.712Z,43.22
2022-11-05T05:29:59.723Z,41.58
2022-11-05T05:31:02.249Z,43.10
2022-11-05T05:32:05.605Z,45.90
2022-11-05T05:33:08.157Z,42.47
2022-11-05T05:34:12.806Z,39.58
2022-11-05T05:35:15.877Z,43.33
2022-11-05T05:36:18.394Z,39.83
2022-11-05T05:37:20.834Z,42.28
2022-11-05T05:38:23.358Z,42.88
2022-11-05T05:39:27.182Z,46.25
2022-11-05T05:40:32.077Z,43.78
2022-11-05T05:41:39.279Z,47.15
2022-11-05T05:42:43.316Z,44.50
2022-11-05T05:43:46.070Z,41.88
2022-11-05T05:44:48.571Z,42.30
2022-11-05T05:45:51.166Z,43.47
2022-11-05T05:46:55.177Z,45.72
2022-11-05T05:47:57.912Z,45.47
2022-11-05T05:49:00.634Z,43.45
2022-11-05T05:50:03.412Z,44.08
2022-11-05T05:51:11.862Z,43.30
2022-11-05T05:52:16.924Z,41.78
2022-11-05T05:53:22.251Z,44.97
2022-11-05T05:54:31.905Z,44.67
2022-11-05T05:55:40.036Z,57.45
2022-11-05T05:56:45.787Z,58.17
2022-11-05T05:57:48.323Z,63.30
2022-11-05T05:58:50.821Z,60.15
2022-11-05T05:59:53.283Z,54.38
2022-11-05T06:00:55.835Z,56.83
2022-11-05T06:01:58.485Z,53.03
2022-11-05T06:03:01.645Z,46.90
2022-11-05T06:04:11.686Z,51.53
2022-11-05T06:05:14.557Z,51.63
2022-11-05T06:06:21.369Z,49.67
2022-11-05T06:07:26.132Z,42.67
2022-11-05T06:08:29.328Z,52.03
2022-11-05T06:09:31.882Z,43.70
2022-11-05T06:10:34.392Z,43.38
2022-11-05T06:11:37.316Z,49.10
2022-11-05T06:12:39.742Z,44.95
2022-11-05T06:13:42.235Z,45.42
2022-11-05T06:14:44.720Z,46.03
2022-11-05T06:15:47.314Z,47.08
2022-11-05T06:16:49.703Z,41.22
2022-11-05T06:17:52.398Z,47.53
2022-11-05T06:18:54.972Z,43.35
2022-11-05T06:19:59.683Z,44.78
2022-11-05T06:21:07.547Z,51.33
2022-11-05T06:22:11.328Z,44.00
2022-11-05T06:23:13.867Z,46.30
2022-11-05T06:24:16.518Z,47.97
2022-11-05T06:25:19.315Z,44.50
2022-11-05T06:26:26.774Z,45.38
2022-11-05T06:27:37.011Z,43.38
2022-11-05T06:28:42.591Z,47.08
2022-11-05T06:29:45.537Z,44.88
2022-11-05T06:30:55.177Z,45.00
2022-11-05T06:31:58.241Z,42.22
2022-11-05T06:33:05.710Z,45.72
2022-11-05T06:34:10.990Z,43.50
2022-11-05T06:35:13.970Z,44.35
2022-11-05T06:37:40.163Z,49.17
2022-11-05T06:38:45.166Z,44.13
2022-11-05T06:39:47.842Z,43.28
2022-11-05T06:40:50.338Z,46.20
2022-11-05T06:43:15.887Z,41.60
2022-11-05T06:44:18.509Z,45.47
2022-11-05T06:45:21.510Z,46.50
2022-11-05T06:46:28.389Z,41.92
2022-11-05T06:47:32.477Z,42.97
2022-11-05T06:48:35.280Z,41.92
2022-11-05T06:49:39.633Z,43.15
2022-11-05T06:50:46.802Z,46.88
2022-11-05T06:51:52.892Z,47.95
2022-11-05T06:52:59.389Z,42.58
2022-11-05T06:54:04.531Z,49.22
2022-11-05T06:55:12.105Z,42.88
2022-11-05T06:56:16.067Z,44.95
2022-11-05T06:57:18.721Z,42.15
2022-11-05T06:58:22.096Z,44.00
2022-11-05T06:59:24.728Z,45.67
2022-11-05T07:00:29.914Z,45.05
2022-11-05T07:01:33.138Z,52.30
2022-11-05T07:02:38.600Z,44.15
2022-11-05T07:07:11.513Z,46.17
2022-11-05T07:08:20.917Z,50.42
2022-11-05T07:09:56.482Z,49.10
2022-11-05T07:11:53.916Z,43.78
2022-11-05T07:13:17.845Z,46.65
2022-11-05T07:14:37.228Z,48.88
2022-11-05T07:15:42.395Z,48.42
2022-11-05T07:16:55.227Z,47.75
2022-11-05T07:18:15.490Z,45.58
2022-11-05T07:21:03.077Z,49.65
2022-11-05T07:22:29.341Z,51.80
2022-11-05T07:31:19.252Z,44.33
2022-11-05T07:32:32.347Z,48.55
2022-11-05T07:33:38.898Z,52.97
2022-11-05T07:34:49.901Z,54.65
2022-11-05T07:35:53.070Z,54.63
2022-11-05T07:36:58.386Z,55.78
2022-11-05T07:38:07.803Z,54.28
2022-11-05T07:39:48.881Z,48.83
2022-11-05T07:41:26.636Z,46.95
2022-11-05T07:43:10.207Z,49.88
2022-11-05T07:55:08.360Z,51.72
2022-11-05T07:56:14.203Z,62.97
2022-11-05T07:57:23.574Z,77.88
2022-11-05T07:58:34.941Z,67.68
2022-11-05T07:59:44.607Z,58.95
2022-11-05T08:00:54.560Z,51.47
2022-11-05T08:01:59.657Z,63.70
2022-11-05T08:03:16.088Z,53.03
2022-11-05T08:04:21.541Z,51.05
2022-11-05T08:05:27.211Z,55.42
2022-11-05T08:06:32.652Z,57.50
2022-11-05T08:07:40.291Z,53.40
2022-11-05T08:08:43.411Z,59.67
2022-11-05T08:09:46.071Z,58.65
2022-11-05T08:10:48.693Z,60.53
2022-11-05T08:11:53.299Z,66.07
2022-11-05T08:13:07.208Z,71.55
2022-11-05T08:14:15.247Z,53.60
2022-11-05T08:15:18.660Z,48.63
2022-11-05T08:16:21.201Z,54.20
2022-11-05T08:17:26.772Z,46.15
2022-11-05T08:18:33.601Z,53.58
2022-11-05T08:19:43.827Z,49.13
2022-11-05T08:20:50.652Z,49.63
2022-11-05T08:21:55.808Z,50.40
2022-11-05T08:23:01.302Z,47.45
2022-11-05T08:24:04.932Z,51.00
2022-11-05T08:25:15.281Z,52.38
2022-11-05T08:26:21.271Z,50.22
2022-11-05T08:27:33.361Z,52.28
2022-11-05T08:28:38.130Z,52.35
2022-11-05T08:29:41.777Z,47.50
2022-11-05T08:30:58.687Z,48.83
2022-11-05T08:32:11.548Z,50.83
2022-11-05T08:33:35.778Z,51.38
2022-11-05T08:34:45.963Z,49.03
2022-11-05T08:35:52.032Z,47.83
2022-11-05T08:36:54.624Z,50.17
2022-11-05T08:38:12.679Z,53.35
2022-11-05T08:39:17.044Z,49.47
2022-11-05T08:40:25.649Z,50.55
2022-11-05T08:41:31.324Z,50.58
2022-11-05T08:42:37.767Z,51.17
2022-11-05T08:43:52.247Z,45.25
2022-11-05T08:44:54.952Z,44.15
2022-11-05T08:46:07.152Z,47.33
2022-11-05T08:47:36.697Z,39.45
2022-11-05T08:48:47.733Z,46.67
2022-11-05T08:49:51.201Z,49.45
2022-11-05T08:50:58.224Z,46.75
2022-11-05T08:52:10.668Z,49.35
2022-11-05T08:53:20.466Z,46.53
2022-11-05T08:54:22.954Z,47.78
2022-11-05T08:55:31.729Z,47.33
2022-11-05T08:56:37.809Z,51.25
2022-11-05T08:57:41.736Z,49.97
2022-11-05T09:00:02.388Z,52.67
2022-11-05T09:01:06.216Z,47.10
2022-11-05T09:02:13.219Z,45.78
2022-11-05T09:04:50.325Z,42.90
2022-11-05T09:06:08.177Z,45.53
2022-11-05T09:07:20.486Z,49.38
2022-11-05T09:08:31.362Z,51.05
2022-11-05T09:09:35.971Z,49.53
2022-11-05T09:10:42.148Z,50.40
2022-11-05T09:12:11.225Z,47.03
2022-11-05T09:13:19.798Z,47.25
2022-11-05T09:14:31.573Z,52.63
2022-11-05T09:15:38.398Z,45.50
2022-11-05T09:16:49.392Z,45.95
2022-11-05T09:17:56.681Z,51.13
2022-11-05T09:21:03.803Z,42.10
2022-11-05T09:22:08.234Z,49.28
2022-11-05T09:23:18.873Z,51.20
2022-11-05T09:24:35.417Z,54.28
2022-11-05T09:25:42.903Z,54.72
2022-11-05T09:26:48.296Z,60.15
2022-11-05T09:28:32.827Z,52.95
2022-11-05T09:29:42.777Z,51.78
2022-11-05T09:31:26.600Z,51.97
2022-11-05T09:32:44.272Z,55.47
2022-11-05T09:33:52.646Z,63.30
2022-11-05T09:35:05.627Z,65.47
2022-11-05T09:36:51.017Z,66.35
2022-11-05T09:38:01.556Z,69.10
2022-11-05T09:41:24.095Z,54.22
2022-11-05T09:42:30.605Z,53.33
2022-11-05T09:43:45.805Z,52.05
2022-11-05T09:45:10.776Z,46.97
2022-11-05T09:46:41.362Z,44.63
2022-11-05T09:48:11.939Z,51.25
2022-11-05T09:49:51.087Z,48.75
2022-11-05T09:51:31.234Z,48.38
2022-11-05T09:54:46.441Z,48.97
2022-11-05T09:56:52.959Z,44.80
2022-11-05T09:57:00.017Z,46.00
2022-11-05T09:58:40.944Z,40.83
2022-11-05T10:00:13.765Z,50.67
2022-11-05T10:01:29.852Z,44.38
2022-11-05T10:03:01.532Z,48.47
2022-11-05T10:04:26.365Z,47.70
2022-11-05T10:05:40.256Z,45.92
2022-11-05T10:07:02.261Z,46.45
2022-11-05T10:08:17.254Z,46.42
2022-11-05T10:09:30.415Z,46.70
2022-11-05T10:10:42.059Z,44.20
2022-11-05T10:11:53.605Z,46.65
2022-11-05T10:13:13.713Z,43.92
2022-11-05T10:14:24.026Z,49.28
2022-11-05T10:15:31.871Z,46.03
2022-11-05T10:16:43.666Z,43.05
2022-11-05T10:17:51.418Z,45.10
2022-11-05T10:19:17.150Z,49.58
2022-11-05T10:20:23.691Z,47.67
2022-11-05T10:21:51.405Z,48.15
2022-11-05T10:22:55.459Z,43.28
2022-11-05T10:23:58.695Z,46.97
2022-11-05T10:25:01.174Z,46.50
2022-11-05T10:26:08.145Z,46.67
2022-11-05T10:27:23.656Z,45.63
2022-11-05T10:28:32.686Z,47.20
2022-11-05T10:29:36.364Z,48.83
2022-11-05T10:30:38.895Z,45.40
2022-11-05T10:31:41.490Z,52.55
2022-11-05T10:32:45.548Z,49.22
2022-11-05T10:35:06.690Z,43.03
2022-11-05T10:36:32.336Z,46.75
2022-11-05T10:37:40.653Z,44.85
2022-11-05T10:38:43.806Z,47.28
2022-11-05T10:39:46.619Z,45.70
2022-11-05T10:41:14.047Z,46.53
2022-11-05T10:42:35.023Z,45.88
2022-11-05T10:43:42.378Z,45.88
2022-11-05T10:44:52.284Z,50.75
2022-11-05T10:46:06.476Z,49.05
2022-11-05T10:47:11.918Z,50.20
2022-11-05T10:48:31.364Z,50.92
2022-11-05T10:49:42.389Z,49.47
2022-11-05T10:50:45.251Z,53.05
2022-11-05T10:51:57.394Z,46.50
2022-11-05T10:53:46.013Z,47.13
2022-11-05T10:54:51.247Z,49.17
2022-11-05T10:55:55.019Z,44.70
2022-11-05T10:56:57.998Z,50.42
2022-11-05T10:58:15.790Z,43.40
2022-11-05T10:59:21.043Z,47.30
2022-11-05T11:00:28.764Z,46.83
2022-11-05T11:01:32.713Z,46.83
2022-11-05T11:03:38.402Z,48.70
2022-11-05T11:04:41.135Z,50.25
2022-11-05T11:05:44.001Z,57.70
2022-11-05T11:06:55.610Z,51.42
2022-11-05T11:08:07.919Z,57.13
2022-11-05T11:09:22.028Z,53.65
2022-11-05T11:10:26.013Z,55.13
2022-11-05T11:11:38.011Z,78.13
2022-11-05T11:12:43.502Z,80.30
2022-11-05T11:13:59.476Z,82.35
2022-11-05T11:15:26.340Z,79.00
2022-11-05T11:16:35.027Z,98.68
2022-11-05T11:17:37.727Z,82.13
2022-11-05T11:18:43.086Z,117.28
2022-11-05T11:19:45.627Z,80.78
2022-11-05T11:20:48.221Z,67.13
2022-11-05T11:22:05.408Z,61.65
2022-11-05T11:23:15.981Z,54.67
2022-11-05T11:24:27.611Z,53.10
2022-11-05T11:26:02.082Z,51.50
2022-11-05T11:27:14.961Z,47.70
2022-11-05T11:28:29.862Z,53.00
2022-11-05T11:29:41.904Z,52.55
2022-11-05T11:30:55.402Z,52.63
2022-11-05T11:32:00.634Z,49.97
2022-11-05T11:33:09.649Z,50.95
2022-11-05T11:34:19.043Z,48.72
2022-11-05T11:35:24.384Z,53.38
2022-11-05T11:36:41.635Z,48.75
2022-11-05T11:37:44.664Z,47.55
2022-11-05T11:38:47.226Z,50.42
2022-11-05T11:39:57.858Z,54.75
2022-11-05T11:42:19.359Z,48.50
2022-11-05T11:43:29.636Z,49.90
2022-11-05T11:45:53.526Z,51.42
2022-11-05T11:47:05.610Z,51.28
2022-11-05T11:48:15.118Z,53.38
2022-11-05T11:49:38.301Z,49.53
2022-11-05T11:50:43.325Z,53.30
2022-11-05T11:51:50.012Z,54.85
2022-11-05T11:53:16.189Z,53.17
2022-11-05T11:54:21.438Z,48.35
2022-11-05T11:55:24.025Z,51.83
2022-11-05T11:56:27.466Z,52.60
2022-11-05T11:57:29.965Z,50.03
2022-11-05T11:58:40.251Z,46.38
2022-11-05T12:00:07.187Z,50.17
2022-11-05T12:01:35.019Z,52.63
2022-11-05T12:02:53.911Z,50.22
2022-11-05T12:04:11.420Z,47.63
2022-11-05T12:05:34.396Z,54.60
2022-11-05T12:06:53.148Z,50.85
2022-11-05T12:08:01.738Z,52.00
2022-11-05T12:09:31.255Z,50.47
2022-11-05T12:10:39.857Z,62.83
2022-11-05T12:12:02.761Z,60.33
2022-11-05T12:14:32.836Z,54.58
2022-11-05T12:15:41.436Z,59.78
2022-11-05T12:17:08.817Z,65.60
2022-11-05T12:18:31.363Z,66.80
2022-11-05T12:19:53.597Z,69.75
2022-11-05T12:21:14.177Z,69.20
2022-11-05T12:22:30.738Z,63.05
2022-11-05T12:23:35.605Z,58.92
2022-11-05T12:25:04.724Z,51.25
2022-11-05T12:26:56.762Z,52.47
2022-11-05T12:29:12.300Z,55.38
2022-11-05T12:30:12.989Z,51.53
2022-11-05T12:31:21.552Z,48.10
2022-11-05T12:32:46.147Z,48.78
2022-11-05T12:34:03.622Z,48.55
2022-11-05T12:35:48.968Z,47.08
2022-11-05T12:37:20.165Z,48.28
2022-11-05T12:38:50.565Z,49.55
2022-11-05T12:39:52.883Z,50.13
2022-11-05T12:41:18.466Z,51.53
2022-11-05T12:42:52.033Z,52.92
2022-11-05T12:44:21.657Z,52.33
2022-11-05T12:45:52.658Z,48.75
2022-11-05T12:47:18.508Z,54.17
2022-11-05T12:48:39.358Z,53.50
2022-11-05T12:50:04.645Z,51.20
2022-11-05T12:51:27.052Z,49.95
2022-11-05T12:52:29.547Z,46.80
2022-11-05T12:54:01.311Z,49.70
2022-11-05T12:55:15.487Z,47.53
2022-11-05T12:56:53.403Z,52.20
2022-11-05T12:58:10.956Z,49.83
2022-11-05T12:59:37.449Z,49.38
2022-11-05T13:00:47.865Z,45.35
2022-11-05T13:01:55.080Z,48.08
2022-11-05T13:03:43.105Z,47.35
2022-11-05T13:06:06.315Z,42.95
2022-11-05T13:07:14.446Z,46.42
2022-11-05T13:08:25.555Z,49.72
2022-11-05T13:09:51.747Z,48.15
2022-11-05T13:11:03.709Z,46.30
2022-11-05T13:12:13.199Z,44.70
2022-11-05T13:13:40.050Z,44.85
2022-11-05T13:14:45.488Z,47.05
2022-11-05T13:15:59.415Z,50.38
2022-11-05T13:17:14.276Z,50.42
2022-11-05T13:18:46.145Z,59.25
2022-11-05T13:19:55.697Z,55.63
2022-11-05T13:21:00.622Z,55.67
2022-11-05T13:22:17.652Z,59.75
2022-11-05T13:23:26.654Z,54.13
2022-11-05T13:24:49.040Z,52.90
2022-11-05T13:25:58.273Z,48.35
2022-11-05T13:27:25.310Z,47.25
2022-11-05T13:29:02.554Z,46.08
2022-11-05T13:30:07.575Z,45.42
2022-11-05T13:31:15.992Z,45.67
2022-11-05T13:32:25.267Z,45.83
2022-11-05T13:33:33.686Z,44.58
2022-11-05T13:34:38.822Z,45.45
2022-11-05T13:36:23.348Z,44.75
2022-11-05T13:37:51.568Z,48.30
2022-11-05T13:39:00.251Z,45.25
2022-11-05T13:40:09.411Z,47.00
2022-11-05T13:41:21.090Z,45.17
2022-11-05T13:42:32.995Z,45.78
2022-11-05T13:44:06.701Z,44.92
2022-11-05T13:45:28.240Z,39.72
2022-11-05T13:46:53.869Z,46.08
2022-11-05T13:48:34.348Z,43.85
2022-11-05T13:49:53.641Z,46.45
2022-11-05T13:51:17.170Z,42.70
2022-11-05T13:52:28.640Z,45.97
2022-11-05T13:53:57.706Z,55.63
2022-11-05T13:55:31.373Z,70.38
2022-11-05T13:56:54.080Z,66.30
2022-11-05T13:58:34.520Z,62.15
2022-11-05T14:00:03.894Z,64.38
2022-11-05T14:01:34.032Z,63.20
2022-11-05T14:02:48.023Z,66.05
2022-11-05T14:03:54.451Z,58.85
2022-11-05T14:05:01.819Z,48.28
2022-11-05T14:06:10.584Z,47.03
2022-11-05T14:07:19.995Z,48.42
2022-11-05T14:08:28.400Z,45.10
2022-11-05T14:09:35.312Z,53.03
2022-11-05T14:10:45.081Z,46.55
2022-11-05T14:11:56.452Z,47.95
2022-11-05T14:13:03.659Z,43.00
2022-11-05T14:14:10.262Z,45.53
2022-11-05T14:15:16.372Z,44.40
2022-11-05T14:16:22.363Z,45.05
2022-11-05T14:17:33.451Z,44.28
2022-11-05T14:18:42.846Z,42.85
2022-11-05T14:19:51.609Z,47.65
2022-11-05T14:21:00.886Z,44.47
2022-11-05T14:22:33.201Z,46.28
2022-11-05T14:23:49.510Z,46.72
2022-11-05T14:24:52.227Z,45.42
2022-11-05T14:25:57.935Z,47.85
2022-11-05T14:27:00.550Z,43.45
2022-11-05T14:28:23.616Z,43.17
2022-11-05T14:29:38.163Z,47.75
2022-11-05T14:30:42.546Z,42.45
2022-11-05T14:32:08.462Z,50.80
2022-11-05T14:33:27.730Z,46.67
2022-11-05T14:34:44.680Z,44.53
2022-11-05T14:35:49.244Z,46.22
2022-11-05T14:37:33.802Z,42.17
2022-11-05T14:38:37.226Z,40.78
2022-11-05T14:39:41.379Z,43.60
2022-11-05T14:41:56.075Z,38.05
2022-11-05T14:43:18.111Z,38.45
2022-11-05T14:44:22.431Z,39.40
2022-11-05T14:45:37.576Z,39.95
2022-11-05T14:46:47.282Z,35.50
2022-11-05T14:47:54.728Z,33.33
2022-11-05T14:49:08.137Z,38.25
2022-11-05T14:50:26.035Z,36.92
2022-11-05T14:51:37.329Z,31.58
2022-11-05T14:52:52.467Z,33.03
2022-11-05T14:54:21.303Z,32.17
2022-11-05T14:55:40.374Z,30.90
2022-11-05T14:56:56.359Z,33.15
2022-11-05T14:57:59.785Z,30.08
2022-11-05T14:59:24.412Z,31.02
2022-11-05T15:00:28.702Z,31.48
2022-11-05T15:01:52.033Z,28.88
2022-11-05T15:03:01.690Z,33.45
2022-11-05T15:04:18.244Z,25.48
2022-11-05T15:07:24.473Z,26.08
2022-11-05T15:08:38.546Z,28.20
2022-11-05T15:09:43.042Z,29.08
2022-11-05T15:10:49.377Z,32.10
2022-11-05T15:12:03.034Z,30.73
2022-11-05T15:13:06.700Z,26.25
2022-11-05T15:14:41.016Z,30.85
2022-11-05T15:15:47.799Z,26.23
2022-11-05T15:16:55.620Z,26.17
2022-11-05T15:18:15.227Z,26.65
2022-11-05T15:19:26.541Z,26.50
2022-11-05T15:20:40.737Z,25.33
2022-11-05T15:21:49.108Z,28.95
2022-11-05T15:22:58.527Z,28.02
2022-11-05T15:24:04.172Z,27.90
2022-11-05T15:25:25.455Z,26.17
2022-11-05T15:26:36.612Z,25.45
2022-11-05T15:27:51.600Z,26.67
2022-11-05T15:28:56.344Z,24.70
2022-11-05T15:30:18.152Z,21.35
2022-11-05T15:31:50.502Z,24.33
2022-11-05T15:32:54.377Z,24.75
2022-11-05T15:34:27.387Z,25.25
2022-11-05T15:35:30.670Z,25.90
2022-11-05T15:36:35.018Z,30.05
2022-11-05T15:37:53.424Z,27.98
2022-11-05T15:39:29.322Z,27.73
2022-11-05T15:40:33.763Z,21.27
2022-11-05T15:41:36.963Z,19.85
2022-11-05T15:43:10.425Z,18.15
2022-11-05T15:44:39.752Z,20.33
2022-11-05T15:46:15.036Z,21.17
2022-11-05T15:47:48.419Z,21.75
2022-11-05T15:49:33.263Z,17.75
2022-11-05T15:50:44.142Z,23.70
2022-11-05T15:52:11.704Z,21.98
2022-11-05T15:54:01.884Z,21.45
2022-11-05T15:55:13.396Z,16.65
2022-11-05T15:56:50.902Z,12.80
2022-11-05T15:58:22.090Z,15.52
2022-11-05T15:59:52.090Z,12.13
2022-11-05T16:01:32.503Z,10.68
2022-11-05T16:02:57.428Z,10.50
2022-11-05T16:04:21.565Z,8.25
2022-11-05T16:05:37.244Z,10.68
2022-11-05T16:08:50.525Z,9.02
2022-11-05T16:09:59.330Z,8.45
2022-11-05T16:11:04.512Z,10.15
2022-11-05T16:12:19.986Z,8.15
2022-11-05T16:13:32.219Z,10.23
2022-11-05T16:14:36.699Z,8.88